DRRN

Diori Hamani International Airport

Niamey, Niger
METAR DRRN 160500Z 24004KT CAVOK 27/23 Q1014 NOSIG
Observed Flight Rules
Aug-16 @ 05:00 UTC (an hour ago) Visual Flight Rules
Wind Visibility Clouds
240° at 4 knots 10,000+ meters
  • Clear skies
Temperatures Readings
Current 27°C / 81°F
Dewpoint 23°C / 73°F
Humidity 79%
Altimeter 29.94" Hg
Pressure 1014 hPa
Elevation 227
METAR DRRN 160500Z 24004KT CAVOK 27/23 Q1014 NOSIG
Observed Flight Rules
Aug-16 @ 05:00 UTC
(an hour ago)
VFR
Wind Visibility
240° at 4 knots 10,000+ meters
Clouds
  • Clear skies
Temperature Dewpoint
27°C / 81°F 23°C / 73°F
Humidity Altimeter Pressure
79% 29.94" Hg 1014 hPa